Погода Бракулинона неделю

Смоленская область, Россия

23 - 29 мая
  • 23мая
    Сегодня
    +8°
    +22°
    Ясно и безоблачно
    ВремяПогодаТемператураВлажностьДавлениеВетер, м/сВероятность осадков
    00:00Ясно и безоблачно+13°C82 %750 мм3.1 м/с2 %
    03:00Ясно и безоблачно+11°C59 %750 мм3.4 м/с2 %
    06:00Ясно и безоблачно+11°C62 %751 мм3.8 м/с2 %
    09:00Ясно и безоблачно+16°C53 %753 мм4.4 м/с2 %
    12:00Ясно и безоблачно+21°C40 %753 мм5.2 м/с2 %
    15:00Ясно и безоблачно+22°C37 %753 мм4.5 м/с2 %
    18:00Ясно и безоблачно+21°C39 %753 мм4.8 м/с2 %
    21:00Ясно и безоблачно+16°C48 %754 мм3.5 м/с2 %
  • 24мая
    Пятница
    +6°
    +20°
    Ясно и безоблачно
    ВремяПогодаТемператураВлажностьДавлениеВетер, м/сВероятность осадков
    00:00Ясно и безоблачно+12°C54 %755 мм3.6 м/с2 %
    03:00Ясно и безоблачно+9°C63 %756 мм3.0 м/с2 %
    06:00Ясно и безоблачно+9°C62 %756 мм3.3 м/с2 %
    09:00Ясно и безоблачно+15°C47 %757 мм3.7 м/с2 %
    12:00Ясно и безоблачно+18°C35 %757 мм4.3 м/с2 %
    15:00Ясно и безоблачно+20°C30 %756 мм4.0 м/с2 %
    18:00Ясно и безоблачно+19°C33 %755 мм3.5 м/с2 %
    21:00Ясно и безоблачно+14°C50 %755 мм2.6 м/с2 %
  • 25мая
    Суббота
    +7°
    +23°
    Ясно и безоблачно
    ВремяПогодаТемператураВлажностьДавлениеВетер, м/сВероятность осадков
    00:00Ясно и безоблачно+10°C61 %756 мм2.7 м/с2 %
    03:00Ясно и безоблачно+8°C72 %755 мм2.2 м/с2 %
    06:00Ясно и безоблачно+8°C72 %755 мм2.2 м/с2 %
    09:00Ясно и безоблачно+16°C53 %755 мм2.1 м/с2 %
    12:00Ясно и безоблачно+21°C38 %755 мм2.8 м/с2 %
    15:00Ясно и безоблачно+22°C35 %754 мм2.8 м/с2 %
    18:00Ясно и безоблачно+22°C38 %753 мм2.1 м/с2 %
    21:00Ясно и безоблачно+15°C64 %752 мм2.5 м/с2 %
  • 26мая
    Воскресенье
    +9°
    +25°
    Ясно и безоблачно
    ВремяПогодаТемператураВлажностьДавлениеВетер, м/сВероятность осадков
    00:00Практически безоблачно+12°C65 %752 мм2.2 м/с2 %
    03:00Практически безоблачно+9°C78 %752 мм1.9 м/с2 %
    06:00Облачно с прояснениями+10°C78 %752 мм1.7 м/с2 %
    09:00Облачно с прояснениями+19°C54 %752 мм0.8 м/с2 %
    12:00Ясно и безоблачно+22°C39 %752 мм0.7 м/с2 %
    15:00Ясно и безоблачно+24°C37 %751 мм0.8 м/с8 %
    18:00Небольшая облачность+25°C36 %750 мм0.1 м/с18 %
    21:00Облачно с прояснениями+19°C56 %751 мм0.4 м/с8 %
  • 27мая
    Понедельник
    +12°
    +24°
    Облачно с прояснениями
    ВремяПогодаТемператураВлажностьДавлениеВетер, м/сВероятность осадков
    00:00Практически безоблачно+14°C71 %751 мм2.2 м/с2 %
    03:00Небольшая облачность+11°C83 %751 мм1.6 м/с2 %
    06:00Ясно и безоблачно+13°C83 %752 мм2.2 м/с2 %
    09:00Ясно и безоблачно+20°C70 %753 мм2.2 м/с3 %
    12:00Практически безоблачно+24°C52 %753 мм2.5 м/с21 %
    15:00Облачно с прояснениями+24°C49 %752 мм1.8 м/с22 %
    18:00Небольшая облачность+22°C56 %752 мм2.8 м/с29 %
    21:00Ясно и безоблачно+19°C73 %752 мм2.0 м/с12 %
Мы используем cookies
Соглашаюсь